sensor_id;sensor_type;location;lat;lon;timestamp;P1;durP1;ratioP1;P2;durP2;ratioP2
49235;SDS011;35067;48.134;8.378;2023-04-25T00:00:50;6.68;;;2.70;;
49235;SDS011;35067;48.134;8.378;2023-04-25T00:01:52;4.05;;;2.85;;
49235;SDS011;35067;48.134;8.378;2023-04-25T00:02:53;4.83;;;2.80;;
49235;SDS011;35067;48.134;8.378;2023-04-25T00:03:55;8.07;;;3.38;;
49235;SDS011;35067;48.134;8.378;2023-04-25T00:04:57;4.78;;;3.10;;
49235;SDS011;35067;48.134;8.378;2023-04-25T00:05:59;4.85;;;2.97;;
49235;SDS011;35067;48.134;8.378;2023-04-25T00:07:01;6.93;;;3.05;;
49235;SDS011;35067;48.134;8.378;2023-04-25T00:08:04;4.75;;;2.63;;
49235;SDS011;35067;48.134;8.378;2023-04-25T00:09:06;4.13;;;3.17;;
49235;SDS011;35067;48.134;8.378;2023-04-25T00:10:09;6.82;;;3.53;;
49235;SDS011;35067;48.134;8.378;2023-04-25T00:11:12;5.90;;;3.17;;
49235;SDS011;35067;48.134;8.378;2023-04-25T00:12:13;3.97;;;2.90;;
49235;SDS011;35067;48.134;8.378;2023-04-25T00:13:15;5.47;;;2.77;;
49235;SDS011;35067;48.134;8.378;2023-04-25T00:14:17;5.20;;;2.80;;
49235;SDS011;35067;48.134;8.378;2023-04-25T00:15:19;4.65;;;3.08;;
49235;SDS011;35067;48.134;8.378;2023-04-25T00:16:21;5.13;;;2.95;;
49235;SDS011;35067;48.134;8.378;2023-04-25T00:17:23;5.00;;;3.53;;
49235;SDS011;35067;48.134;8.378;2023-04-25T00:18:27;4.18;;;2.80;;
49235;SDS011;35067;48.134;8.378;2023-04-25T00:19:33;7.70;;;2.85;;
49235;SDS011;35067;48.134;8.378;2023-04-25T00:20:35;4.07;;;2.67;;
49235;SDS011;35067;48.134;8.378;2023-04-25T00:21:37;3.85;;;2.80;;
49235;SDS011;35067;48.134;8.378;2023-04-25T00:22:40;5.68;;;2.75;;
49235;SDS011;35067;48.134;8.378;2023-04-25T00:23:42;5.18;;;2.53;;
49235;SDS011;35067;48.134;8.378;2023-04-25T00:24:42;4.07;;;2.43;;
49235;SDS011;35067;48.134;8.378;2023-04-25T00:25:45;4.50;;;2.85;;
49235;SDS011;35067;48.134;8.378;2023-04-25T00:26:48;5.90;;;2.75;;
49235;SDS011;35067;48.134;8.378;2023-04-25T00:27:49;8.07;;;2.80;;
49235;SDS011;35067;48.134;8.378;2023-04-25T00:28:50;5.23;;;2.63;;
49235;SDS011;35067;48.134;8.378;2023-04-25T00:29:52;5.20;;;2.58;;
49235;SDS011;35067;48.134;8.378;2023-04-25T00:30:53;4.30;;;2.63;;
49235;SDS011;35067;48.134;8.378;2023-04-25T00:31:54;6.67;;;2.63;;
49235;SDS011;35067;48.134;8.378;2023-04-25T00:32:54;4.83;;;2.60;;
49235;SDS011;35067;48.134;8.378;2023-04-25T00:33:55;4.27;;;2.33;;
49235;SDS011;35067;48.134;8.378;2023-04-25T00:34:56;6.40;;;2.80;;
49235;SDS011;35067;48.134;8.378;2023-04-25T00:35:57;3.22;;;2.30;;
49235;SDS011;35067;48.134;8.378;2023-04-25T00:36:59;4.45;;;2.47;;
49235;SDS011;35067;48.134;8.378;2023-04-25T00:38:02;3.80;;;2.60;;
49235;SDS011;35067;48.134;8.378;2023-04-25T00:39:02;6.73;;;2.73;;
49235;SDS011;35067;48.134;8.378;2023-04-25T00:40:04;4.45;;;2.85;;
49235;SDS011;35067;48.134;8.378;2023-04-25T00:41:11;6.93;;;3.00;;
49235;SDS011;35067;48.134;8.378;2023-04-25T00:42:12;5.03;;;2.90;;
49235;SDS011;35067;48.134;8.378;2023-04-25T00:43:13;5.82;;;2.70;;
49235;SDS011;35067;48.134;8.378;2023-04-25T00:44:14;5.27;;;3.10;;
49235;SDS011;35067;48.134;8.378;2023-04-25T00:45:16;4.05;;;2.20;;
49235;SDS011;35067;48.134;8.378;2023-04-25T00:46:18;3.90;;;2.70;;
49235;SDS011;35067;48.134;8.378;2023-04-25T00:47:18;4.67;;;2.93;;
49235;SDS011;35067;48.134;8.378;2023-04-25T00:48:22;4.13;;;2.67;;
49235;SDS011;35067;48.134;8.378;2023-04-25T00:49:23;10.18;;;3.00;;
49235;SDS011;35067;48.134;8.378;2023-04-25T00:50:24;7.67;;;2.80;;
49235;SDS011;35067;48.134;8.378;2023-04-25T00:51:25;4.97;;;2.50;;
49235;SDS011;35067;48.134;8.378;2023-04-25T00:52:27;3.88;;;2.60;;
49235;SDS011;35067;48.134;8.378;2023-04-25T00:53:28;7.93;;;2.53;;
49235;SDS011;35067;48.134;8.378;2023-04-25T00:54:30;3.22;;;2.60;;
49235;SDS011;35067;48.134;8.378;2023-04-25T00:55:31;5.10;;;2.80;;
49235;SDS011;35067;48.134;8.378;2023-04-25T00:56:32;4.78;;;3.30;;
49235;SDS011;35067;48.134;8.378;2023-04-25T00:57:33;4.10;;;3.03;;
49235;SDS011;35067;48.134;8.378;2023-04-25T00:58:34;7.35;;;3.70;;
49235;SDS011;35067;48.134;8.378;2023-04-25T00:59:35;5.78;;;3.35;;
49235;SDS011;35067;48.134;8.378;2023-04-25T01:00:39;5.22;;;3.15;;
49235;SDS011;35067;48.134;8.378;2023-04-25T01:01:41;7.13;;;3.72;;
49235;SDS011;35067;48.134;8.378;2023-04-25T01:02:44;8.90;;;4.10;;
49235;SDS011;35067;48.134;8.378;2023-04-25T01:03:45;10.88;;;3.95;;
49235;SDS011;35067;48.134;8.378;2023-04-25T01:04:47;4.82;;;3.72;;
49235;SDS011;35067;48.134;8.378;2023-04-25T01:05:50;5.82;;;3.92;;
49235;SDS011;35067;48.134;8.378;2023-04-25T01:06:53;10.35;;;4.13;;
49235;SDS011;35067;48.134;8.378;2023-04-25T01:07:55;9.15;;;3.88;;
49235;SDS011;35067;48.134;8.378;2023-04-25T01:08:56;7.07;;;4.10;;
49235;SDS011;35067;48.134;8.378;2023-04-25T01:09:58;6.95;;;4.13;;
49235;SDS011;35067;48.134;8.378;2023-04-25T01:10:59;5.93;;;4.00;;
49235;SDS011;35067;48.134;8.378;2023-04-25T01:12:00;9.43;;;3.88;;
49235;SDS011;35067;48.134;8.378;2023-04-25T01:13:02;11.48;;;4.00;;
49235;SDS011;35067;48.134;8.378;2023-04-25T01:14:03;5.05;;;3.50;;
49235;SDS011;35067;48.134;8.378;2023-04-25T01:15:04;11.73;;;4.10;;
49235;SDS011;35067;48.134;8.378;2023-04-25T01:16:06;9.70;;;4.75;;
49235;SDS011;35067;48.134;8.378;2023-04-25T01:17:07;10.27;;;4.40;;
49235;SDS011;35067;48.134;8.378;2023-04-25T01:18:11;7.90;;;3.92;;
49235;SDS011;35067;48.134;8.378;2023-04-25T01:19:12;8.50;;;4.57;;
49235;SDS011;35067;48.134;8.378;2023-04-25T01:20:18;5.32;;;3.88;;
49235;SDS011;35067;48.134;8.378;2023-04-25T01:21:22;6.70;;;3.97;;
49235;SDS011;35067;48.134;8.378;2023-04-25T01:22:26;7.03;;;4.15;;
49235;SDS011;35067;48.134;8.378;2023-04-25T01:23:28;6.17;;;3.60;;
49235;SDS011;35067;48.134;8.378;2023-04-25T01:24:29;6.68;;;4.40;;
49235;SDS011;35067;48.134;8.378;2023-04-25T01:25:32;5.75;;;3.67;;
49235;SDS011;35067;48.134;8.378;2023-04-25T01:26:34;6.53;;;4.18;;
49235;SDS011;35067;48.134;8.378;2023-04-25T01:27:36;5.22;;;3.60;;
49235;SDS011;35067;48.134;8.378;2023-04-25T01:28:39;7.53;;;4.55;;
49235;SDS011;35067;48.134;8.378;2023-04-25T01:29:42;5.75;;;3.42;;
49235;SDS011;35067;48.134;8.378;2023-04-25T01:30:43;8.33;;;3.13;;
49235;SDS011;35067;48.134;8.378;2023-04-25T01:31:44;5.32;;;3.28;;
49235;SDS011;35067;48.134;8.378;2023-04-25T01:32:45;6.63;;;3.50;;
49235;SDS011;35067;48.134;8.378;2023-04-25T01:33:48;6.97;;;3.70;;
49235;SDS011;35067;48.134;8.378;2023-04-25T01:34:49;8.07;;;4.07;;
49235;SDS011;35067;48.134;8.378;2023-04-25T01:35:50;7.13;;;3.40;;
49235;SDS011;35067;48.134;8.378;2023-04-25T01:36:51;6.97;;;3.40;;
49235;SDS011;35067;48.134;8.378;2023-04-25T01:37:53;6.28;;;3.38;;
49235;SDS011;35067;48.134;8.378;2023-04-25T01:38:55;7.72;;;3.55;;
49235;SDS011;35067;48.134;8.378;2023-04-25T01:39:56;5.72;;;4.38;;
49235;SDS011;35067;48.134;8.378;2023-04-25T01:40:57;7.70;;;4.20;;
49235;SDS011;35067;48.134;8.378;2023-04-25T01:41:59;7.53;;;4.10;;
49235;SDS011;35067;48.134;8.378;2023-04-25T01:43:01;7.10;;;3.95;;
49235;SDS011;35067;48.134;8.378;2023-04-25T01:44:02;10.07;;;3.92;;
49235;SDS011;35067;48.134;8.378;2023-04-25T01:45:04;5.93;;;4.05;;
49235;SDS011;35067;48.134;8.378;2023-04-25T01:46:06;6.85;;;4.40;;
49235;SDS011;35067;48.134;8.378;2023-04-25T01:47:07;9.47;;;4.00;;
49235;SDS011;35067;48.134;8.378;2023-04-25T01:48:09;7.82;;;4.05;;
49235;SDS011;35067;48.134;8.378;2023-04-25T01:49:12;7.75;;;3.80;;
49235;SDS011;35067;48.134;8.378;2023-04-25T01:50:12;6.77;;;3.97;;
49235;SDS011;35067;48.134;8.378;2023-04-25T01:51:17;6.30;;;4.00;;
49235;SDS011;35067;48.134;8.378;2023-04-25T01:52:18;11.57;;;4.75;;
49235;SDS011;35067;48.134;8.378;2023-04-25T01:53:18;5.17;;;3.77;;
49235;SDS011;35067;48.134;8.378;2023-04-25T01:54:20;6.68;;;4.45;;
49235;SDS011;35067;48.134;8.378;2023-04-25T01:55:23;7.65;;;3.78;;
49235;SDS011;35067;48.134;8.378;2023-04-25T01:56:24;5.07;;;3.88;;
49235;SDS011;35067;48.134;8.378;2023-04-25T01:57:30;6.57;;;4.10;;
49235;SDS011;35067;48.134;8.378;2023-04-25T01:58:30;7.20;;;3.97;;
49235;SDS011;35067;48.134;8.378;2023-04-25T01:59:31;7.07;;;4.10;;
49235;SDS011;35067;48.134;8.378;2023-04-25T02:00:32;7.30;;;4.47;;
49235;SDS011;35067;48.134;8.378;2023-04-25T02:01:33;9.50;;;3.73;;
49235;SDS011;35067;48.134;8.378;2023-04-25T02:02:34;5.10;;;3.53;;
49235;SDS011;35067;48.134;8.378;2023-04-25T02:03:35;5.38;;;3.53;;
49235;SDS011;35067;48.134;8.378;2023-04-25T02:04:37;6.38;;;3.72;;
49235;SDS011;35067;48.134;8.378;2023-04-25T02:05:38;7.37;;;3.93;;
49235;SDS011;35067;48.134;8.378;2023-04-25T02:06:39;6.43;;;4.10;;
49235;SDS011;35067;48.134;8.378;2023-04-25T02:07:39;5.77;;;3.93;;
49235;SDS011;35067;48.134;8.378;2023-04-25T02:08:40;7.57;;;4.30;;
49235;SDS011;35067;48.134;8.378;2023-04-25T02:09:42;5.70;;;3.45;;
49235;SDS011;35067;48.134;8.378;2023-04-25T02:10:42;7.43;;;4.07;;
49235;SDS011;35067;48.134;8.378;2023-04-25T02:11:43;8.20;;;3.67;;
49235;SDS011;35067;48.134;8.378;2023-04-25T02:12:44;7.53;;;3.60;;
49235;SDS011;35067;48.134;8.378;2023-04-25T02:13:45;11.33;;;3.83;;
49235;SDS011;35067;48.134;8.378;2023-04-25T02:14:45;8.77;;;4.30;;
49235;SDS011;35067;48.134;8.378;2023-04-25T02:15:46;10.20;;;4.70;;
49235;SDS011;35067;48.134;8.378;2023-04-25T02:16:47;8.57;;;4.10;;
49235;SDS011;35067;48.134;8.378;2023-04-25T02:17:47;8.43;;;4.93;;
49235;SDS011;35067;48.134;8.378;2023-04-25T02:18:48;7.93;;;4.27;;
49235;SDS011;35067;48.134;8.378;2023-04-25T02:19:54;6.38;;;3.67;;
49235;SDS011;35067;48.134;8.378;2023-04-25T02:20:54;9.35;;;4.68;;
49235;SDS011;35067;48.134;8.378;2023-04-25T02:21:55;9.17;;;3.83;;
49235;SDS011;35067;48.134;8.378;2023-04-25T02:22:58;8.90;;;4.60;;
49235;SDS011;35067;48.134;8.378;2023-04-25T02:23:58;13.13;;;5.37;;
49235;SDS011;35067;48.134;8.378;2023-04-25T02:24:59;8.43;;;4.15;;
49235;SDS011;35067;48.134;8.378;2023-04-25T02:26:00;10.93;;;4.80;;
49235;SDS011;35067;48.134;8.378;2023-04-25T02:27:02;7.20;;;4.30;;
49235;SDS011;35067;48.134;8.378;2023-04-25T02:28:03;7.80;;;4.50;;
49235;SDS011;35067;48.134;8.378;2023-04-25T02:29:03;9.17;;;4.20;;
49235;SDS011;35067;48.134;8.378;2023-04-25T02:30:05;10.67;;;4.93;;
49235;SDS011;35067;48.134;8.378;2023-04-25T02:31:07;8.98;;;5.03;;
49235;SDS011;35067;48.134;8.378;2023-04-25T02:32:08;9.83;;;4.83;;
49235;SDS011;35067;48.134;8.378;2023-04-25T02:33:08;9.50;;;4.70;;
49235;SDS011;35067;48.134;8.378;2023-04-25T02:34:10;5.47;;;4.28;;
49235;SDS011;35067;48.134;8.378;2023-04-25T02:35:11;7.40;;;4.00;;
49235;SDS011;35067;48.134;8.378;2023-04-25T02:36:12;9.73;;;4.70;;
49235;SDS011;35067;48.134;8.378;2023-04-25T02:37:13;8.40;;;4.63;;
49235;SDS011;35067;48.134;8.378;2023-04-25T02:38:14;11.07;;;5.03;;
49235;SDS011;35067;48.134;8.378;2023-04-25T02:39:16;9.15;;;4.07;;
49235;SDS011;35067;48.134;8.378;2023-04-25T02:40:18;9.82;;;4.68;;
49235;SDS011;35067;48.134;8.378;2023-04-25T02:41:19;8.00;;;4.55;;
49235;SDS011;35067;48.134;8.378;2023-04-25T02:42:20;6.93;;;4.03;;
49235;SDS011;35067;48.134;8.378;2023-04-25T02:43:22;6.40;;;4.40;;
49235;SDS011;35067;48.134;8.378;2023-04-25T02:44:25;6.93;;;4.68;;
49235;SDS011;35067;48.134;8.378;2023-04-25T02:45:25;5.87;;;4.50;;
49235;SDS011;35067;48.134;8.378;2023-04-25T02:46:26;7.18;;;4.53;;
49235;SDS011;35067;48.134;8.378;2023-04-25T02:47:28;6.13;;;4.00;;
49235;SDS011;35067;48.134;8.378;2023-04-25T02:48:29;12.40;;;5.38;;
49235;SDS011;35067;48.134;8.378;2023-04-25T02:49:30;8.70;;;4.63;;
49235;SDS011;35067;48.134;8.378;2023-04-25T02:50:30;7.60;;;4.10;;
49235;SDS011;35067;48.134;8.378;2023-04-25T02:51:31;7.13;;;4.70;;
49235;SDS011;35067;48.134;8.378;2023-04-25T02:52:32;6.60;;;4.70;;
49235;SDS011;35067;48.134;8.378;2023-04-25T02:53:33;8.52;;;4.60;;
49235;SDS011;35067;48.134;8.378;2023-04-25T02:54:34;8.87;;;5.00;;
49235;SDS011;35067;48.134;8.378;2023-04-25T02:55:35;7.43;;;4.80;;
49235;SDS011;35067;48.134;8.378;2023-04-25T02:56:36;6.77;;;4.73;;
49235;SDS011;35067;48.134;8.378;2023-04-25T02:57:37;8.87;;;5.13;;
49235;SDS011;35067;48.134;8.378;2023-04-25T02:58:38;7.93;;;4.55;;
49235;SDS011;35067;48.134;8.378;2023-04-25T02:59:40;7.68;;;4.65;;
49235;SDS011;35067;48.134;8.378;2023-04-25T03:00:41;8.82;;;4.63;;
49235;SDS011;35067;48.134;8.378;2023-04-25T03:01:43;8.03;;;4.73;;
49235;SDS011;35067;48.134;8.378;2023-04-25T03:02:45;9.63;;;4.72;;
49235;SDS011;35067;48.134;8.378;2023-04-25T03:03:46;12.40;;;5.33;;
49235;SDS011;35067;48.134;8.378;2023-04-25T03:04:48;8.10;;;4.90;;
49235;SDS011;35067;48.134;8.378;2023-04-25T03:05:49;9.47;;;4.70;;
49235;SDS011;35067;48.134;8.378;2023-04-25T03:06:51;8.52;;;4.65;;
49235;SDS011;35067;48.134;8.378;2023-04-25T03:07:54;8.15;;;5.00;;
49235;SDS011;35067;48.134;8.378;2023-04-25T03:08:55;11.07;;;3.93;;
49235;SDS011;35067;48.134;8.378;2023-04-25T03:09:57;8.50;;;4.78;;
49235;SDS011;35067;48.134;8.378;2023-04-25T03:11:00;7.82;;;4.88;;
49235;SDS011;35067;48.134;8.378;2023-04-25T03:12:00;7.87;;;4.60;;
49235;SDS011;35067;48.134;8.378;2023-04-25T03:13:02;8.80;;;5.20;;
49235;SDS011;35067;48.134;8.378;2023-04-25T03:14:02;7.47;;;4.30;;
49235;SDS011;35067;48.134;8.378;2023-04-25T03:15:03;5.83;;;4.27;;
49235;SDS011;35067;48.134;8.378;2023-04-25T03:16:04;10.23;;;5.60;;
49235;SDS011;35067;48.134;8.378;2023-04-25T03:17:05;8.48;;;5.20;;
49235;SDS011;35067;48.134;8.378;2023-04-25T03:18:06;10.13;;;4.90;;
49235;SDS011;35067;48.134;8.378;2023-04-25T03:19:07;7.80;;;4.63;;
49235;SDS011;35067;48.134;8.378;2023-04-25T03:20:08;7.80;;;4.67;;
49235;SDS011;35067;48.134;8.378;2023-04-25T03:21:10;9.60;;;5.30;;
49235;SDS011;35067;48.134;8.378;2023-04-25T03:22:10;9.17;;;5.27;;
49235;SDS011;35067;48.134;8.378;2023-04-25T03:23:11;9.13;;;4.93;;
49235;SDS011;35067;48.134;8.378;2023-04-25T03:24:12;11.87;;;6.03;;
49235;SDS011;35067;48.134;8.378;2023-04-25T03:25:12;7.97;;;5.17;;
49235;SDS011;35067;48.134;8.378;2023-04-25T03:26:13;8.23;;;5.53;;
49235;SDS011;35067;48.134;8.378;2023-04-25T03:27:14;10.02;;;5.03;;
49235;SDS011;35067;48.134;8.378;2023-04-25T03:28:17;6.70;;;4.88;;
49235;SDS011;35067;48.134;8.378;2023-04-25T03:29:19;11.05;;;4.70;;
49235;SDS011;35067;48.134;8.378;2023-04-25T03:30:24;9.70;;;4.55;;
49235;SDS011;35067;48.134;8.378;2023-04-25T03:31:25;8.73;;;4.43;;
49235;SDS011;35067;48.134;8.378;2023-04-25T03:32:26;9.67;;;4.53;;
49235;SDS011;35067;48.134;8.378;2023-04-25T03:33:27;6.17;;;3.90;;
49235;SDS011;35067;48.134;8.378;2023-04-25T03:34:28;8.95;;;4.93;;
49235;SDS011;35067;48.134;8.378;2023-04-25T03:35:30;8.60;;;5.40;;
49235;SDS011;35067;48.134;8.378;2023-04-25T03:36:31;7.30;;;4.20;;
49235;SDS011;35067;48.134;8.378;2023-04-25T03:37:33;7.88;;;3.40;;
49235;SDS011;35067;48.134;8.378;2023-04-25T03:38:34;6.80;;;4.38;;
49235;SDS011;35067;48.134;8.378;2023-04-25T03:39:35;6.23;;;4.00;;
49235;SDS011;35067;48.134;8.378;2023-04-25T03:40:37;7.72;;;4.00;;
49235;SDS011;35067;48.134;8.378;2023-04-25T03:41:38;7.00;;;4.20;;
49235;SDS011;35067;48.134;8.378;2023-04-25T03:42:38;7.10;;;4.90;;
49235;SDS011;35067;48.134;8.378;2023-04-25T03:43:39;7.60;;;4.33;;
49235;SDS011;35067;48.134;8.378;2023-04-25T03:44:40;5.70;;;4.00;;
49235;SDS011;35067;48.134;8.378;2023-04-25T03:45:42;10.10;;;4.80;;
49235;SDS011;35067;48.134;8.378;2023-04-25T03:46:43;5.72;;;3.80;;
49235;SDS011;35067;48.134;8.378;2023-04-25T03:47:43;5.23;;;3.77;;
49235;SDS011;35067;48.134;8.378;2023-04-25T03:48:46;5.82;;;3.80;;
49235;SDS011;35067;48.134;8.378;2023-04-25T03:49:48;6.78;;;4.20;;
49235;SDS011;35067;48.134;8.378;2023-04-25T03:50:52;6.40;;;3.67;;
49235;SDS011;35067;48.134;8.378;2023-04-25T03:51:53;7.22;;;3.70;;
49235;SDS011;35067;48.134;8.378;2023-04-25T03:52:54;6.73;;;4.07;;
49235;SDS011;35067;48.134;8.378;2023-04-25T03:53:54;5.77;;;3.63;;
49235;SDS011;35067;48.134;8.378;2023-04-25T03:54:55;5.90;;;4.13;;
49235;SDS011;35067;48.134;8.378;2023-04-25T03:55:56;6.37;;;3.87;;
49235;SDS011;35067;48.134;8.378;2023-04-25T03:56:56;6.20;;;4.03;;
49235;SDS011;35067;48.134;8.378;2023-04-25T03:57:57;6.53;;;4.10;;
49235;SDS011;35067;48.134;8.378;2023-04-25T03:58:58;6.13;;;4.13;;
49235;SDS011;35067;48.134;8.378;2023-04-25T03:59:59;6.23;;;4.30;;
49235;SDS011;35067;48.134;8.378;2023-04-25T04:01:00;8.27;;;4.27;;
49235;SDS011;35067;48.134;8.378;2023-04-25T04:02:07;6.60;;;3.70;;
49235;SDS011;35067;48.134;8.378;2023-04-25T04:03:08;11.27;;;4.53;;
49235;SDS011;35067;48.134;8.378;2023-04-25T04:04:10;8.63;;;4.63;;
49235;SDS011;35067;48.134;8.378;2023-04-25T04:05:12;7.15;;;4.60;;
49235;SDS011;35067;48.134;8.378;2023-04-25T04:06:13;5.97;;;3.78;;
49235;SDS011;35067;48.134;8.378;2023-04-25T04:07:14;6.82;;;4.22;;
49235;SDS011;35067;48.134;8.378;2023-04-25T04:08:15;5.13;;;3.63;;
49235;SDS011;35067;48.134;8.378;2023-04-25T04:09:16;6.17;;;3.60;;
49235;SDS011;35067;48.134;8.378;2023-04-25T04:10:16;5.50;;;3.77;;
49235;SDS011;35067;48.134;8.378;2023-04-25T04:11:17;7.43;;;4.03;;
49235;SDS011;35067;48.134;8.378;2023-04-25T04:12:18;8.57;;;4.10;;
49235;SDS011;35067;48.134;8.378;2023-04-25T04:13:18;7.20;;;4.23;;
49235;SDS011;35067;48.134;8.378;2023-04-25T04:14:19;12.13;;;5.20;;
49235;SDS011;35067;48.134;8.378;2023-04-25T04:15:21;9.80;;;5.60;;
49235;SDS011;35067;48.134;8.378;2023-04-25T04:16:22;5.88;;;4.70;;
49235;SDS011;35067;48.134;8.378;2023-04-25T04:17:24;10.10;;;4.43;;
49235;SDS011;35067;48.134;8.378;2023-04-25T04:18:25;9.10;;;5.10;;
49235;SDS011;35067;48.134;8.378;2023-04-25T04:19:26;6.47;;;4.50;;
49235;SDS011;35067;48.134;8.378;2023-04-25T04:20:27;9.40;;;5.57;;
49235;SDS011;35067;48.134;8.378;2023-04-25T04:21:28;8.10;;;4.60;;
49235;SDS011;35067;48.134;8.378;2023-04-25T04:22:29;7.43;;;4.83;;
49235;SDS011;35067;48.134;8.378;2023-04-25T04:23:31;7.22;;;4.65;;
49235;SDS011;35067;48.134;8.378;2023-04-25T04:24:31;7.30;;;5.07;;
49235;SDS011;35067;48.134;8.378;2023-04-25T04:25:32;11.07;;;5.47;;
49235;SDS011;35067;48.134;8.378;2023-04-25T04:26:34;8.77;;;4.78;;
49235;SDS011;35067;48.134;8.378;2023-04-25T04:27:34;8.13;;;4.97;;
49235;SDS011;35067;48.134;8.378;2023-04-25T04:28:35;10.37;;;6.73;;
49235;SDS011;35067;48.134;8.378;2023-04-25T04:29:37;13.43;;;6.93;;
49235;SDS011;35067;48.134;8.378;2023-04-25T04:30:38;19.02;;;8.18;;
49235;SDS011;35067;48.134;8.378;2023-04-25T04:31:41;14.75;;;7.35;;
49235;SDS011;35067;48.134;8.378;2023-04-25T04:32:41;15.87;;;7.93;;
49235;SDS011;35067;48.134;8.378;2023-04-25T04:33:43;14.77;;;7.57;;
49235;SDS011;35067;48.134;8.378;2023-04-25T04:34:44;13.57;;;7.60;;
49235;SDS011;35067;48.134;8.378;2023-04-25T04:35:47;16.83;;;7.78;;
49235;SDS011;35067;48.134;8.378;2023-04-25T04:36:48;14.88;;;8.23;;
49235;SDS011;35067;48.134;8.378;2023-04-25T04:37:49;12.13;;;6.80;;
49235;SDS011;35067;48.134;8.378;2023-04-25T04:38:50;15.57;;;7.00;;
49235;SDS011;35067;48.134;8.378;2023-04-25T04:39:52;14.30;;;6.60;;
49235;SDS011;35067;48.134;8.378;2023-04-25T04:40:53;14.60;;;7.33;;
49235;SDS011;35067;48.134;8.378;2023-04-25T04:41:54;12.30;;;7.43;;
49235;SDS011;35067;48.134;8.378;2023-04-25T04:42:54;18.03;;;8.47;;
49235;SDS011;35067;48.134;8.378;2023-04-25T04:43:56;13.10;;;6.32;;
49235;SDS011;35067;48.134;8.378;2023-04-25T04:44:57;11.70;;;6.47;;
49235;SDS011;35067;48.134;8.378;2023-04-25T04:46:00;15.20;;;7.43;;
49235;SDS011;35067;48.134;8.378;2023-04-25T04:47:02;11.90;;;7.10;;
49235;SDS011;35067;48.134;8.378;2023-04-25T04:48:06;15.40;;;7.55;;
49235;SDS011;35067;48.134;8.378;2023-04-25T04:49:08;14.30;;;6.93;;
49235;SDS011;35067;48.134;8.378;2023-04-25T04:50:09;14.20;;;6.70;;
49235;SDS011;35067;48.134;8.378;2023-04-25T04:51:11;19.40;;;8.23;;
49235;SDS011;35067;48.134;8.378;2023-04-25T04:52:11;14.33;;;7.20;;
49235;SDS011;35067;48.134;8.378;2023-04-25T04:53:12;15.37;;;7.70;;
49235;SDS011;35067;48.134;8.378;2023-04-25T04:54:13;15.03;;;7.57;;
49235;SDS011;35067;48.134;8.378;2023-04-25T04:55:14;16.87;;;8.00;;
49235;SDS011;35067;48.134;8.378;2023-04-25T04:56:14;12.17;;;7.10;;
49235;SDS011;35067;48.134;8.378;2023-04-25T04:57:15;14.93;;;8.30;;
49235;SDS011;35067;48.134;8.378;2023-04-25T04:58:16;13.80;;;7.10;;
49235;SDS011;35067;48.134;8.378;2023-04-25T04:59:17;12.90;;;6.57;;
49235;SDS011;35067;48.134;8.378;2023-04-25T05:00:17;16.10;;;8.07;;
49235;SDS011;35067;48.134;8.378;2023-04-25T05:01:18;12.57;;;6.40;;
49235;SDS011;35067;48.134;8.378;2023-04-25T05:02:19;17.57;;;7.83;;
49235;SDS011;35067;48.134;8.378;2023-04-25T05:03:21;15.67;;;8.10;;
49235;SDS011;35067;48.134;8.378;2023-04-25T05:04:22;11.02;;;7.40;;
49235;SDS011;35067;48.134;8.378;2023-04-25T05:05:23;15.87;;;7.83;;
49235;SDS011;35067;48.134;8.378;2023-04-25T05:06:24;14.68;;;8.15;;
49235;SDS011;35067;48.134;8.378;2023-04-25T05:07:26;10.73;;;6.22;;
49235;SDS011;35067;48.134;8.378;2023-04-25T05:08:26;9.70;;;6.00;;
49235;SDS011;35067;48.134;8.378;2023-04-25T05:09:27;21.05;;;8.65;;
49235;SDS011;35067;48.134;8.378;2023-04-25T05:10:30;19.65;;;9.75;;
49235;SDS011;35067;48.134;8.378;2023-04-25T05:11:30;20.00;;;10.33;;
49235;SDS011;35067;48.134;8.378;2023-04-25T05:12:31;17.05;;;7.57;;
49235;SDS011;35067;48.134;8.378;2023-04-25T05:13:33;12.85;;;7.88;;
49235;SDS011;35067;48.134;8.378;2023-04-25T05:14:35;15.85;;;8.20;;
49235;SDS011;35067;48.134;8.378;2023-04-25T05:15:35;16.13;;;8.77;;
49235;SDS011;35067;48.134;8.378;2023-04-25T05:16:36;15.43;;;7.82;;
49235;SDS011;35067;48.134;8.378;2023-04-25T05:17:37;14.70;;;7.30;;
49235;SDS011;35067;48.134;8.378;2023-04-25T05:18:39;11.95;;;6.65;;
49235;SDS011;35067;48.134;8.378;2023-04-25T05:19:40;13.37;;;6.93;;
49235;SDS011;35067;48.134;8.378;2023-04-25T05:20:41;16.20;;;7.37;;
49235;SDS011;35067;48.134;8.378;2023-04-25T05:21:42;18.23;;;7.97;;
49235;SDS011;35067;48.134;8.378;2023-04-25T05:22:43;14.90;;;7.53;;
49235;SDS011;35067;48.134;8.378;2023-04-25T05:23:43;14.90;;;8.33;;
49235;SDS011;35067;48.134;8.378;2023-04-25T05:24:44;14.63;;;7.30;;
49235;SDS011;35067;48.134;8.378;2023-04-25T05:25:45;14.50;;;7.73;;
49235;SDS011;35067;48.134;8.378;2023-04-25T05:26:45;18.93;;;7.83;;
49235;SDS011;35067;48.134;8.378;2023-04-25T05:27:46;18.88;;;8.75;;
49235;SDS011;35067;48.134;8.378;2023-04-25T05:28:47;20.60;;;9.07;;
49235;SDS011;35067;48.134;8.378;2023-04-25T05:29:48;16.87;;;8.53;;
49235;SDS011;35067;48.134;8.378;2023-04-25T05:30:49;18.50;;;9.07;;
49235;SDS011;35067;48.134;8.378;2023-04-25T05:31:50;16.57;;;8.10;;
49235;SDS011;35067;48.134;8.378;2023-04-25T05:32:50;14.23;;;8.10;;
49235;SDS011;35067;48.134;8.378;2023-04-25T05:33:51;13.20;;;7.50;;
49235;SDS011;35067;48.134;8.378;2023-04-25T05:34:52;17.73;;;8.17;;
49235;SDS011;35067;48.134;8.378;2023-04-25T05:35:53;13.77;;;7.20;;
49235;SDS011;35067;48.134;8.378;2023-04-25T05:36:54;24.52;;;8.13;;
49235;SDS011;35067;48.134;8.378;2023-04-25T05:37:55;18.15;;;8.88;;
49235;SDS011;35067;48.134;8.378;2023-04-25T05:38:56;17.47;;;7.97;;
49235;SDS011;35067;48.134;8.378;2023-04-25T05:39:56;18.70;;;8.03;;
49235;SDS011;35067;48.134;8.378;2023-04-25T05:40:57;19.67;;;9.23;;
49235;SDS011;35067;48.134;8.378;2023-04-25T05:41:59;13.38;;;8.75;;
49235;SDS011;35067;48.134;8.378;2023-04-25T05:43:01;21.23;;;9.27;;
49235;SDS011;35067;48.134;8.378;2023-04-25T05:44:02;20.20;;;10.07;;
49235;SDS011;35067;48.134;8.378;2023-04-25T05:45:03;19.20;;;9.70;;
49235;SDS011;35067;48.134;8.378;2023-04-25T05:46:04;20.42;;;11.63;;
49235;SDS011;35067;48.134;8.378;2023-04-25T05:47:05;21.63;;;10.75;;
49235;SDS011;35067;48.134;8.378;2023-04-25T05:48:06;15.90;;;8.63;;
49235;SDS011;35067;48.134;8.378;2023-04-25T05:49:07;11.35;;;6.85;;
49235;SDS011;35067;48.134;8.378;2023-04-25T05:50:08;11.07;;;6.83;;
49235;SDS011;35067;48.134;8.378;2023-04-25T05:51:09;10.93;;;6.00;;
49235;SDS011;35067;48.134;8.378;2023-04-25T05:52:10;8.97;;;5.70;;
49235;SDS011;35067;48.134;8.378;2023-04-25T05:53:10;12.03;;;7.03;;
49235;SDS011;35067;48.134;8.378;2023-04-25T05:54:11;10.27;;;5.30;;
49235;SDS011;35067;48.134;8.378;2023-04-25T05:55:12;13.53;;;7.20;;
49235;SDS011;35067;48.134;8.378;2023-04-25T05:56:13;10.13;;;6.22;;
49235;SDS011;35067;48.134;8.378;2023-04-25T05:57:20;12.47;;;6.40;;
49235;SDS011;35067;48.134;8.378;2023-04-25T05:58:25;10.35;;;6.95;;
49235;SDS011;35067;48.134;8.378;2023-04-25T05:59:26;7.20;;;4.50;;
49235;SDS011;35067;48.134;8.378;2023-04-25T06:00:27;9.60;;;5.32;;
49235;SDS011;35067;48.134;8.378;2023-04-25T06:01:28;8.93;;;5.18;;
49235;SDS011;35067;48.134;8.378;2023-04-25T06:02:30;9.02;;;4.43;;
49235;SDS011;35067;48.134;8.378;2023-04-25T06:03:30;6.80;;;5.10;;
49235;SDS011;35067;48.134;8.378;2023-04-25T06:04:31;9.13;;;5.30;;
49235;SDS011;35067;48.134;8.378;2023-04-25T06:05:32;6.23;;;4.67;;
49235;SDS011;35067;48.134;8.378;2023-04-25T06:06:32;9.57;;;4.87;;
49235;SDS011;35067;48.134;8.378;2023-04-25T06:07:33;8.67;;;5.07;;
49235;SDS011;35067;48.134;8.378;2023-04-25T06:08:34;8.60;;;4.30;;